Time;durP1;ratioP1;P1;durP2;ratioP2;P2;SDS_P1;SDS_P2;PMS_P1;PMS_P2;Temp;Humidity;BMP_temperature;BMP_pressure;BME280_temperature;BME280_humidity;BME280_pressure;Samples;Min_cycle;Max_cycle;Signal;HPM_P1;HPM_P2
2021/11/05 00:00:01;;;;;;;5.50;3.03;;;;;;;4.38;81.95;97260.13;5027105;28;20045;-53
2021/11/05 00:02:37;;;;;;;6.07;3.50;;;;;;;4.34;81.88;97261.59;5026345;28;20037;-57
2021/11/05 00:05:08;;;;;;;5.10;3.63;;;;;;;4.31;81.89;97258.53;5026770;28;20076;-56
2021/11/05 00:07:35;;;;;;;7.60;3.45;;;;;;;4.34;82.15;97261.59;5026952;28;20037;-54
2021/11/05 00:10:04;;;;;;;4.97;3.30;;;;;;;4.32;82.37;97260.19;5017813;28;20549;-54
2021/11/05 00:12:31;;;;;;;5.75;3.30;;;;;;;4.29;82.85;97256.06;5026883;28;20041;-53
2021/11/05 00:14:58;;;;;;;6.05;3.03;;;;;;;4.32;82.65;97261.00;5026206;28;20049;-53
2021/11/05 00:17:24;;;;;;;5.28;3.40;;;;;;;4.36;82.18;97264.91;5026684;28;20060;-54
2021/11/05 00:19:51;;;;;;;4.70;2.90;;;;;;;4.38;82.89;97268.19;5026008;28;20045;-51
2021/11/05 00:22:17;;;;;;;6.15;3.00;;;;;;;4.33;82.77;97267.19;5025429;28;20049;-52
2021/11/05 00:24:44;;;;;;;4.88;2.83;;;;;;;4.32;82.87;97260.19;5024944;28;20044;-54
2021/11/05 00:27:10;;;;;;;6.78;3.22;;;;;;;4.33;82.47;97270.69;5027187;28;20402;-51
2021/11/05 00:29:37;;;;;;;5.32;3.30;;;;;;;4.29;83.12;97273.00;5026127;28;20646;-51
2021/11/05 00:32:04;;;;;;;5.20;2.92;;;;;;;4.21;82.79;97259.81;5025934;28;20091;-50
2021/11/05 00:34:30;;;;;;;6.50;3.50;;;;;;;4.14;84.25;97264.38;5025802;28;20041;-52
2021/11/05 00:36:57;;;;;;;6.93;3.92;;;;;;;4.17;83.87;97263.97;5026806;28;20549;-55
2021/11/05 00:39:24;;;;;;;7.05;3.65;;;;;;;4.24;83.15;97270.09;5026648;28;20041;-52
2021/11/05 00:41:50;;;;;;;5.70;3.40;;;;;;;4.23;82.94;97273.81;5017265;28;20067;-54
2021/11/05 00:44:17;;;;;;;4.97;3.40;;;;;;;4.25;82.98;97269.09;5012123;28;20041;-53
2021/11/05 00:46:43;;;;;;;5.45;3.30;;;;;;;4.33;82.59;97276.06;5026019;28;20048;-55
2021/11/05 00:49:10;;;;;;;4.82;3.22;;;;;;;4.49;81.75;97273.91;5026254;28;20045;-54
2021/11/05 00:51:37;;;;;;;5.97;3.80;;;;;;;4.29;82.47;97275.66;5024255;28;20056;-56
2021/11/05 00:54:03;;;;;;;6.25;3.40;;;;;;;4.32;82.62;97281.63;5026045;28;20052;-51
2021/11/05 00:56:30;;;;;;;5.72;3.47;;;;;;;4.44;81.84;97285.28;5026011;28;20064;-54
2021/11/05 00:58:56;;;;;;;5.95;3.20;;;;;;;4.49;82.26;97285.44;5026131;28;20068;-53
2021/11/05 01:01:23;;;;;;;4.78;3.03;;;;;;;4.60;81.18;97285.81;5025929;28;20053;-55
2021/11/05 01:03:49;;;;;;;5.13;3.00;;;;;;;4.68;80.90;97288.22;5025538;28;20045;-51
2021/11/05 01:06:18;;;;;;;6.22;3.28;;;;;;;4.66;81.04;97287.63;5025855;28;20046;-55
2021/11/05 01:08:45;;;;;;;6.03;3.55;;;;;;;4.72;80.85;97288.63;5026106;28;20762;-54
2021/11/05 01:11:12;;;;;;;5.03;3.15;;;;;;;4.68;81.20;97294.41;5025391;28;20407;-54
2021/11/05 01:13:39;;;;;;;6.13;3.58;;;;;;;4.71;81.33;97292.34;5026091;28;20104;-56
2021/11/05 01:16:06;;;;;;;5.35;3.60;;;;;;;4.61;81.81;97300.88;5026022;28;20045;-52
2021/11/05 01:18:33;;;;;;;5.53;3.95;;;;;;;4.62;82.19;97299.81;5025480;28;20065;-49
2021/11/05 01:21:00;;;;;;;5.82;3.90;;;;;;;4.66;82.06;97306.41;5023971;28;20072;-52
2021/11/05 01:23:26;;;;;;;5.90;3.80;;;;;;;4.60;82.60;97305.41;5025311;28;20045;-51
2021/11/05 01:25:53;;;;;;;6.30;4.10;;;;;;;4.60;82.71;97310.75;5016945;28;20053;-50
2021/11/05 01:28:20;;;;;;;6.47;3.53;;;;;;;4.62;82.95;97311.38;5024232;28;20578;-53
2021/11/05 01:30:46;;;;;;;6.78;3.63;;;;;;;4.53;83.22;97312.63;5025851;28;20053;-54
2021/11/05 01:33:13;;;;;;;5.72;3.42;;;;;;;4.60;82.86;97309.94;5024288;28;20056;-53
2021/11/05 01:35:40;;;;;;;5.60;3.60;;;;;;;4.58;83.45;97312.84;5024874;28;20797;-52
2021/11/05 01:38:10;;;;;;;6.30;4.13;;;;;;;4.33;85.27;97310.06;5025549;28;20049;-56
2021/11/05 01:40:40;;;;;;;6.75;4.30;;;;;;;4.18;87.35;97311.16;5025595;28;20724;-55
2021/11/05 01:43:08;;;;;;;7.05;4.50;;;;;;;4.16;89.06;97306.00;5025567;28;20562;-51
2021/11/05 01:45:35;;;;;;;8.48;5.55;;;;;;;4.28;89.23;97316.88;5025341;28;20040;-53
2021/11/05 01:48:02;;;;;;;6.60;4.88;;;;;;;4.20;87.57;97306.41;5025864;28;20056;-55
2021/11/05 01:50:29;;;;;;;7.28;4.47;;;;;;;4.14;88.01;97308.09;5024701;28;20053;-52
2021/11/05 01:52:56;;;;;;;8.80;5.57;;;;;;;4.29;90.04;97315.03;5024185;28;20045;-52
2021/11/05 01:55:23;;;;;;;9.27;4.85;;;;;;;4.37;89.05;97309.44;5024717;28;20061;-55
2021/11/05 01:57:51;;;;;;;6.82;4.70;;;;;;;4.31;87.62;97309.47;5025452;28;20711;-53
2021/11/05 02:00:25;;;;;;;5.78;4.03;;;;;;;4.23;87.38;97311.34;5025135;28;20042;-56
2021/11/05 02:02:52;;;;;;;7.20;3.92;;;;;;;4.23;88.03;97315.88;5025453;28;20042;-53
2021/11/05 02:05:19;;;;;;;5.45;3.90;;;;;;;4.10;88.43;97311.41;5027095;28;20045;-55
2021/11/05 02:07:50;;;;;;;6.38;4.20;;;;;;;4.08;89.16;97316.13;5029441;28;20092;-55
2021/11/05 02:10:21;;;;;;;6.83;4.10;;;;;;;4.11;89.47;97313.03;5020591;28;20052;-54
2021/11/05 02:12:49;;;;;;;7.23;4.60;;;;;;;4.22;90.00;97317.75;5026392;28;20283;-56
2021/11/05 02:15:16;;;;;;;6.78;4.28;;;;;;;4.28;88.82;97318.75;5028998;28;20319;-56
2021/11/05 02:17:45;;;;;;;6.78;4.25;;;;;;;4.12;88.35;97326.22;5028651;28;20049;-57
2021/11/05 02:20:15;;;;;;;6.90;4.47;;;;;;;4.01;89.25;97333.06;5027659;28;20550;-53
2021/11/05 02:22:42;;;;;;;7.28;4.20;;;;;;;3.91;89.41;97330.03;5020172;28;20041;-52
2021/11/05 02:25:09;;;;;;;7.15;4.55;;;;;;;3.87;89.71;97337.63;5023398;28;20045;-56
2021/11/05 02:27:36;;;;;;;6.38;4.65;;;;;;;3.69;90.25;97327.56;5019721;28;20029;-53
2021/11/05 02:30:07;;;;;;;7.93;4.10;;;;;;;3.67;90.46;97340.34;5027329;28;20205;-52
2021/11/05 02:32:35;;;;;;;5.60;3.85;;;;;;;3.72;90.12;97329.03;5026442;28;20050;-51
2021/11/05 02:35:03;;;;;;;7.10;4.55;;;;;;;3.71;90.95;97344.25;5028467;28;20041;-51
2021/11/05 02:37:30;;;;;;;7.15;4.20;;;;;;;3.85;91.41;97333.53;5029141;28;20042;-54
2021/11/05 02:39:57;;;;;;;7.35;4.80;;;;;;;3.81;90.24;97341.16;5028084;28;20046;-54
2021/11/05 02:42:24;;;;;;;7.38;4.68;;;;;;;3.64;91.00;97348.78;5027113;28;20125;-56
2021/11/05 02:44:50;;;;;;;6.97;4.30;;;;;;;3.59;90.78;97346.75;5027987;28;20049;-56
2021/11/05 02:47:24;;;;;;;13.30;5.22;;;;;;;3.69;92.31;97359.69;5026260;28;20052;-56
2021/11/05 02:49:54;;;;;;;7.90;5.30;;;;;;;3.44;91.20;97355.00;5028508;28;20092;-57
2021/11/05 02:52:21;;;;;;;8.13;5.00;;;;;;;3.44;91.24;97363.03;5027405;28;20696;-56
2021/11/05 02:54:48;;;;;;;6.47;3.63;;;;;;;3.50;91.57;97364.88;5028079;28;20472;-55
2021/11/05 02:57:15;;;;;;;8.13;4.90;;;;;;;3.70;92.31;97365.88;5027824;28;20052;-55
2021/11/05 02:59:41;;;;;;;8.00;5.35;;;;;;;3.71;91.30;97365.69;5028057;28;20045;-53
2021/11/05 03:02:08;;;;;;;6.88;4.55;;;;;;;3.61;90.67;97367.97;5027988;28;20520;-54
2021/11/05 03:04:37;;;;;;;6.65;4.50;;;;;;;3.69;91.11;97369.59;5028385;28;20393;-51
2021/11/05 03:07:06;;;;;;;6.90;4.20;;;;;;;3.71;90.72;97371.03;5027732;28;20049;-50
2021/11/05 03:09:38;;;;;;;7.57;4.75;;;;;;;3.75;90.55;97374.94;5027932;28;20051;-50
2021/11/05 03:12:06;;;;;;;7.82;4.40;;;;;;;3.56;90.81;97383.81;5027323;28;20120;-53
2021/11/05 03:14:33;;;;;;;8.20;4.15;;;;;;;3.57;90.80;97383.59;5026847;28;20045;-54
2021/11/05 03:17:00;;;;;;;6.40;4.07;;;;;;;3.60;91.14;97383.19;5027566;28;20071;-52
2021/11/05 03:19:26;;;;;;;7.55;4.07;;;;;;;3.61;90.82;97381.38;5027428;28;20045;-52
2021/11/05 03:21:53;;;;;;;6.65;4.25;;;;;;;3.63;90.76;97379.28;5027510;28;20099;-49
2021/11/05 03:24:20;;;;;;;7.55;3.83;;;;;;;3.66;90.70;97381.56;5027192;28;20427;-54
2021/11/05 03:26:47;;;;;;;6.05;4.00;;;;;;;3.71;90.78;97394.31;5026727;28;20052;-54
2021/11/05 03:29:14;;;;;;;6.00;3.95;;;;;;;3.80;91.05;97385.06;5027355;28;20471;-54
2021/11/05 03:31:41;;;;;;;7.20;4.20;;;;;;;3.97;90.10;97396.13;5027440;28;20736;-55
2021/11/05 03:34:08;;;;;;;6.70;4.05;;;;;;;4.02;90.23;97401.69;5027104;28;20049;-55
2021/11/05 03:36:35;;;;;;;6.30;4.10;;;;;;;4.08;90.40;97399.19;5027091;28;20531;-54
2021/11/05 03:39:03;;;;;;;6.93;4.65;;;;;;;4.18;89.97;97404.97;5027201;28;20542;-54
2021/11/05 03:41:30;;;;;;;5.78;3.72;;;;;;;4.12;88.50;97401.25;5007659;28;20042;-55
2021/11/05 03:43:57;;;;;;;5.90;3.88;;;;;;;3.90;89.24;97400.69;5022742;28;20654;-49
2021/11/05 03:46:23;;;;;;;6.43;3.97;;;;;;;3.69;90.06;97405.22;5027101;28;20500;-50
2021/11/05 03:48:50;;;;;;;7.20;4.25;;;;;;;3.73;90.88;97414.50;5027289;28;20037;-51
2021/11/05 03:51:17;;;;;;;5.07;3.30;;;;;;;3.80;90.46;97416.34;5027219;28;20041;-52
2021/11/05 03:53:43;;;;;;;7.50;3.92;;;;;;;3.93;91.23;97423.53;5027046;28;20528;-52
2021/11/05 03:56:10;;;;;;;5.70;4.05;;;;;;;4.11;89.98;97437.16;5027660;28;20753;-56
2021/11/05 03:58:36;;;;;;;6.78;4.03;;;;;;;4.09;89.82;97431.16;5027429;28;20100;-51
2021/11/05 04:01:04;;;;;;;6.10;3.88;;;;;;;4.08;89.05;97431.34;5026734;28;20481;-54
2021/11/05 04:03:30;;;;;;;9.23;4.38;;;;;;;3.88;90.33;97427.66;5026943;28;20103;-52
2021/11/05 04:05:58;;;;;;;5.78;3.50;;;;;;;3.92;90.19;97444.16;5013090;28;20174;-57
2021/11/05 04:08:24;;;;;;;7.18;4.18;;;;;;;4.08;89.99;97448.28;5019309;28;20050;-56
2021/11/05 04:10:52;;;;;;;6.22;3.83;;;;;;;3.68;90.80;97445.63;5026935;28;20049;-57
2021/11/05 04:13:18;;;;;;;7.43;4.05;;;;;;;3.71;92.02;97454.06;5026771;28;20045;-55
2021/11/05 04:15:45;;;;;;;7.18;4.75;;;;;;;3.76;91.81;97451.59;5026295;28;20045;-55
2021/11/05 04:18:11;;;;;;;7.05;4.90;;;;;;;3.72;91.20;97460.25;5026959;28;20052;-56
2021/11/05 04:20:38;;;;;;;6.35;3.78;;;;;;;3.67;91.25;97458.19;5026369;28;20060;-55
2021/11/05 04:23:08;;;;;;;6.47;4.07;;;;;;;3.75;91.05;97462.50;5025969;28;20045;-56
2021/11/05 04:25:36;;;;;;;4.53;2.85;;;;;;;3.85;90.20;97464.78;5026630;28;20378;-56
2021/11/05 04:28:07;;;;;;;6.55;3.25;;;;;;;3.85;89.65;97459.41;5025781;28;20049;-56
2021/11/05 04:30:34;;;;;;;4.32;2.63;;;;;;;3.93;89.94;97469.09;5026497;28;20198;-57
2021/11/05 04:33:00;;;;;;;6.28;3.78;;;;;;;4.00;89.34;97473.44;5026265;28;20040;-54
2021/11/05 04:35:27;;;;;;;4.63;3.00;;;;;;;3.96;88.91;97469.50;5019479;28;20048;-51
2021/11/05 04:37:53;;;;;;;5.05;2.90;;;;;;;4.02;87.92;97470.56;5025877;28;20045;-53
2021/11/05 04:40:20;;;;;;;4.65;2.63;;;;;;;4.02;87.87;97470.56;5025625;28;20045;-53
2021/11/05 04:42:47;;;;;;;3.22;1.90;;;;;;;4.13;86.18;97483.31;5025797;28;20037;-53
2021/11/05 04:45:13;;;;;;;3.25;1.88;;;;;;;4.28;85.44;97477.72;5025932;28;20107;-54
2021/11/05 04:47:40;;;;;;;3.90;2.22;;;;;;;4.29;85.10;97476.72;5025863;28;20053;-50
2021/11/05 04:50:07;;;;;;;3.20;1.80;;;;;;;4.33;85.01;97473.59;5026233;28;20045;-53
2021/11/05 04:52:35;;;;;;;3.75;1.65;;;;;;;4.37;84.80;97481.00;5022445;28;20267;-52
2021/11/05 04:55:03;;;;;;;3.42;1.80;;;;;;;4.44;84.49;97486.38;5025514;28;20056;-54
2021/11/05 04:57:29;;;;;;;2.90;1.75;;;;;;;4.39;85.40;97484.28;5026114;28;20048;-52
2021/11/05 04:59:56;;;;;;;3.22;1.90;;;;;;;4.42;85.16;97494.59;5025347;28;20041;-51
2021/11/05 05:02:23;;;;;;;3.83;1.67;;;;;;;4.33;84.77;97489.66;5025929;28;20042;-52
2021/11/05 05:04:50;;;;;;;3.83;1.88;;;;;;;4.32;84.86;97491.53;5020779;28;20045;-54
2021/11/05 05:07:17;;;;;;;2.53;1.55;;;;;;;4.34;84.94;97497.50;5007467;28;20042;-53
2021/11/05 05:09:44;;;;;;;3.35;1.85;;;;;;;4.31;85.17;97497.13;5025991;28;20060;-51
2021/11/05 05:12:10;;;;;;;2.92;1.50;;;;;;;4.48;83.74;97497.47;5025618;28;20412;-53
2021/11/05 05:14:37;;;;;;;7.50;2.08;;;;;;;4.47;83.80;97506.56;5026053;28;20045;-52
2021/11/05 05:17:08;;;;;;;3.28;1.70;;;;;;;4.52;83.14;97504.06;5025490;28;20128;-53
2021/11/05 05:19:35;;;;;;;2.80;1.63;;;;;;;4.55;83.31;97511.72;5025990;28;20045;-53
2021/11/05 05:22:03;;;;;;;3.28;1.55;;;;;;;4.55;82.99;97506.34;5024195;28;20037;-53
2021/11/05 05:24:29;;;;;;;3.97;1.88;;;;;;;4.52;83.68;97520.16;5024986;28;20056;-54
2021/11/05 05:26:56;;;;;;;3.53;1.85;;;;;;;4.53;83.89;97519.97;5021212;28;20041;-55
2021/11/05 05:29:22;;;;;;;3.13;1.80;;;;;;;4.43;84.63;97515.03;5023471;28;20057;-55
2021/11/05 05:31:50;;;;;;;2.45;1.50;;;;;;;4.52;84.33;97517.47;5022030;28;20041;-57
2021/11/05 05:34:16;;;;;;;3.22;1.80;;;;;;;4.50;84.44;97523.06;5022428;28;20053;-55
2021/11/05 05:36:43;;;;;;;4.35;2.08;;;;;;;4.47;84.30;97523.50;5020981;28;20041;-55
2021/11/05 05:39:10;;;;;;;2.90;1.58;;;;;;;4.55;84.31;97525.13;5024401;28;20041;-57
2021/11/05 05:41:37;;;;;;;2.78;1.45;;;;;;;4.60;84.52;97530.66;5027639;28;20084;-55
2021/11/05 05:44:04;;;;;;;3.50;2.00;;;;;;;4.50;84.72;97530.28;5026114;28;20103;-56
2021/11/05 05:46:31;;;;;;;3.08;1.67;;;;;;;4.41;84.82;97535.88;5027216;28;20869;-56
2021/11/05 05:48:57;;;;;;;3.85;1.92;;;;;;;4.43;85.33;97538.34;5027355;28;20708;-57
2021/11/05 05:51:24;;;;;;;4.32;2.00;;;;;;;4.33;85.45;97544.13;5026856;28;20041;-54
2021/11/05 05:53:51;;;;;;;7.07;2.80;;;;;;;4.26;86.60;97548.66;5020665;28;20034;-57
2021/11/05 05:56:17;;;;;;;3.38;1.83;;;;;;;4.27;86.15;97556.50;5027440;28;20048;-55
2021/11/05 05:58:44;;;;;;;3.40;2.05;;;;;;;4.31;86.04;97553.41;5026932;28;20696;-56
2021/11/05 06:01:10;;;;;;;4.53;2.03;;;;;;;4.32;85.71;97558.56;5020860;28;20049;-57
2021/11/05 06:03:37;;;;;;;2.63;1.35;;;;;;;4.34;85.70;97561.84;5027263;28;20602;-58
2021/11/05 06:06:03;;;;;;;3.75;1.90;;;;;;;4.25;85.91;97561.25;5022884;28;20052;-56
2021/11/05 06:08:30;;;;;;;2.75;1.52;;;;;;;4.34;85.51;97569.91;5026927;28;20045;-57
2021/11/05 06:10:57;;;;;;;4.90;2.10;;;;;;;4.23;86.77;97571.34;5029021;28;20037;-57
2021/11/05 06:13:24;;;;;;;3.08;1.73;;;;;;;4.30;86.35;97579.38;5027721;28;20042;-57
2021/11/05 06:15:51;;;;;;;3.38;2.00;;;;;;;4.34;86.44;97580.63;5029244;28;20061;-56
2021/11/05 06:18:18;;;;;;;2.92;1.63;;;;;;;4.29;86.27;97580.41;5028655;28;20064;-57
2021/11/05 06:20:44;;;;;;;3.55;1.73;;;;;;;4.41;85.21;97586.81;5028500;28;20045;-55
2021/11/05 06:23:11;;;;;;;3.47;2.10;;;;;;;4.34;85.95;97587.81;5028729;28;20393;-55
2021/11/05 06:25:38;;;;;;;3.75;2.03;;;;;;;4.38;86.01;97587.22;5029039;28;20076;-52
2021/11/05 06:28:05;;;;;;;3.15;2.00;;;;;;;4.36;85.89;97599.19;5029025;28;20053;-53
2021/11/05 06:30:31;;;;;;;3.85;2.10;;;;;;;4.35;86.60;97602.91;5029131;28;20057;-56
2021/11/05 06:33:00;;;;;;;4.53;2.13;;;;;;;4.40;86.58;97611.97;5027517;28;20039;-57
2021/11/05 06:35:28;;;;;;;3.13;1.50;;;;;;;4.51;85.44;97615.06;5026833;28;20056;-56
2021/11/05 06:37:57;;;;;;;2.85;1.55;;;;;;;4.51;85.39;97617.75;5026557;28;20053;-54
2021/11/05 06:40:24;;;;;;;3.25;1.88;;;;;;;4.57;85.18;97629.50;5026108;28;20041;-57
2021/11/05 06:42:51;;;;;;;4.15;2.05;;;;;;;4.54;85.26;97634.22;5026937;28;20049;-56
2021/11/05 06:45:17;;;;;;;3.20;1.55;;;;;;;4.61;85.50;97634.22;5025758;28;20076;-56
2021/11/05 06:47:44;;;;;;;5.65;1.95;;;;;;;4.45;85.67;97630.13;5026516;28;20052;-58
2021/11/05 06:50:11;;;;;;;7.28;2.33;;;;;;;4.55;85.93;97635.06;5026003;28;20041;-55
2021/11/05 06:52:38;;;;;;;4.00;1.90;;;;;;;4.63;85.28;97642.06;5025880;28;20041;-57
2021/11/05 06:55:06;;;;;;;3.78;1.95;;;;;;;4.69;84.79;97643.94;5022401;28;20049;-57
2021/11/05 06:57:33;;;;;;;3.90;1.70;;;;;;;4.74;84.52;97667.44;5026778;28;20738;-56
2021/11/05 06:59:59;;;;;;;3.15;1.65;;;;;;;4.73;84.78;97665.81;5026370;28;20045;-57
2021/11/05 07:02:26;;;;;;;3.00;1.73;;;;;;;4.75;84.13;97669.13;5023380;28;20824;-57
2021/11/05 07:04:53;;;;;;;5.15;1.73;;;;;;;4.79;83.93;97673.03;5019740;28;20052;-53
2021/11/05 07:07:19;;;;;;;3.70;1.80;;;;;;;4.80;83.96;97678.19;5015799;28;20037;-58
2021/11/05 07:09:46;;;;;;;2.90;1.63;;;;;;;4.87;83.92;97685.41;5026046;28;20056;-57
2021/11/05 07:12:13;;;;;;;5.25;1.90;;;;;;;4.77;84.96;97689.34;5026713;28;20041;-57
2021/11/05 07:14:40;;;;;;;2.55;1.33;;;;;;;4.86;84.02;97694.50;5028246;28;20049;-57
2021/11/05 07:17:07;;;;;;;3.38;1.50;;;;;;;4.80;84.84;97704.19;5028362;28;20686;-58
2021/11/05 07:19:33;;;;;;;3.10;1.70;;;;;;;4.85;85.59;97708.94;5028041;28;20038;-51
2021/11/05 07:22:02;;;;;;;4.50;2.15;;;;;;;4.91;84.87;97713.47;5028076;28;20041;-56
2021/11/05 07:24:35;;;;;;;4.85;2.00;;;;;;;4.86;84.94;97719.47;5027875;28;20059;-56
2021/11/05 07:27:03;;;;;;;3.72;1.90;;;;;;;4.85;85.70;97722.34;5028277;28;20048;-56
2021/11/05 07:29:31;;;;;;;3.70;1.95;;;;;;;4.83;85.99;97725.22;5028196;28;20045;-54
2021/11/05 07:32:07;;;;;;;4.15;2.10;;;;;;;4.81;86.49;97730.81;5027499;28;20045;-53
2021/11/05 07:34:35;;;;;;;4.03;2.13;;;;;;;4.86;86.96;97743.59;5031554;28;20256;-54
2021/11/05 07:37:04;;;;;;;3.97;2.10;;;;;;;4.94;86.67;97742.59;5023822;28;20099;-54
2021/11/05 07:39:30;;;;;;;4.47;2.30;;;;;;;5.00;86.40;97751.66;5027314;28;20041;-56
2021/11/05 07:41:57;;;;;;;4.07;2.28;;;;;;;5.06;85.73;97759.72;5026794;28;20103;-52
2021/11/05 07:44:23;;;;;;;4.15;2.60;;;;;;;5.15;84.83;97762.19;5025987;28;20033;-56
2021/11/05 07:46:50;;;;;;;4.60;1.95;;;;;;;5.16;84.22;97770.03;5027852;28;20041;-57
2021/11/05 07:49:17;;;;;;;3.70;1.92;;;;;;;5.16;84.91;97775.41;5027622;28;20034;-55
2021/11/05 07:51:44;;;;;;;3.58;1.85;;;;;;;5.20;84.55;97779.31;5026885;28;20053;-54
2021/11/05 07:54:11;;;;;;;3.75;1.58;;;;;;;5.24;83.97;97786.97;5018148;28;20544;-56
2021/11/05 07:56:38;;;;;;;2.83;1.50;;;;;;;5.33;83.33;97799.16;5012307;28;20033;-58
2021/11/05 07:59:07;;;;;;;3.13;1.58;;;;;;;5.22;84.39;97792.53;5027453;28;20083;-58
2021/11/05 08:01:34;;;;;;;4.75;2.60;;;;;;;5.06;85.69;97799.97;5021885;28;20111;-58
2021/11/05 08:04:00;;;;;;;3.65;2.03;;;;;;;5.19;87.09;97801.00;5010547;28;20556;-54
2021/11/05 08:06:27;;;;;;;4.18;2.10;;;;;;;5.38;86.66;97811.97;5007205;28;20077;-57
2021/11/05 08:08:58;;;;;;;;;;;;;;;5.46;84.69;97812.56;5024947;28;20318;-58
2021/11/05 08:11:29;;;;;;;3.80;1.65;;;;;;;5.59;85.14;97817.13;5026215;28;19921;-56
2021/11/05 08:13:57;;;;;;;4.53;1.90;;;;;;;5.62;84.43;97815.88;5027293;28;20045;-57
2021/11/05 08:16:24;;;;;;;4.50;2.95;;;;;;;5.62;85.37;97820.41;5026746;28;20523;-58
2021/11/05 08:18:51;;;;;;;3.83;2.17;;;;;;;5.64;86.30;97829.09;5026499;28;20041;-55
2021/11/05 08:21:19;;;;;;;3.58;1.73;;;;;;;5.45;84.62;97837.78;5023862;28;20052;-58
2021/11/05 08:23:46;;;;;;;3.63;1.90;;;;;;;5.56;86.29;97839.00;5026672;28;20053;-54
2021/11/05 08:26:13;;;;;;;4.07;1.92;;;;;;;5.57;86.65;97837.97;5022160;28;20056;-56
2021/11/05 08:28:41;;;;;;;2.70;1.33;;;;;;;5.50;85.40;97850.59;5012432;28;20038;-57
2021/11/05 08:31:11;;;;;;;3.13;1.20;;;;;;;5.47;84.42;97848.31;5021838;28;20104;-57
2021/11/05 08:33:39;;;;;;;3.35;1.20;;;;;;;5.64;84.36;97856.75;5010675;28;20166;-58
2021/11/05 08:36:07;;;;;;;2.92;1.30;;;;;;;5.67;84.27;97847.47;5016642;28;20053;-55
2021/11/05 08:38:34;;;;;;;2.33;1.30;;;;;;;5.60;84.27;97866.28;5026460;28;20068;-56
2021/11/05 08:41:02;;;;;;;4.20;1.33;;;;;;;5.69;85.07;97854.31;5026399;28;20056;-58
2021/11/05 08:43:32;;;;;;;2.65;1.40;;;;;;;5.82;83.97;97858.00;5025854;28;20046;-57
2021/11/05 08:46:00;;;;;;;4.72;1.70;;;;;;;5.80;82.81;97863.59;5026044;28;20048;-58
2021/11/05 08:48:28;;;;;;;3.97;1.70;;;;;;;5.94;83.52;97861.69;5026369;28;20045;-55
2021/11/05 08:50:58;;;;;;;16.80;9.13;;;;;;;5.86;84.08;97868.13;5020219;28;20037;-56
2021/11/05 08:53:25;;;;;;;5.55;2.22;;;;;;;5.84;85.26;97864.84;5013086;28;20120;-53
2021/11/05 08:55:51;;;;;;;10.63;6.30;;;;;;;5.99;85.33;97872.66;5006495;28;20436;-54
2021/11/05 08:58:18;;;;;;;2.72;1.48;;;;;;;6.11;82.42;97880.94;5006202;28;20448;-55
2021/11/05 09:00:45;;;;;;;8.80;6.00;;;;;;;6.13;83.96;97877.19;5018540;28;20053;-54
2021/11/05 09:03:11;;;;;;;2.38;1.40;;;;;;;6.06;82.96;97882.59;5015906;28;20042;-54
2021/11/05 09:05:39;;;;;;;5.00;2.40;;;;;;;6.07;83.28;97881.53;5006425;28;20095;-55
2021/11/05 09:08:07;;;;;;;4.55;2.38;;;;;;;6.32;83.18;97892.47;5016129;28;20425;-53
2021/11/05 09:10:34;;;;;;;5.90;2.00;;;;;;;6.30;82.70;97885.66;5025463;28;20041;-53
2021/11/05 09:13:04;;;;;;;4.35;2.20;;;;;;;6.45;83.27;97888.09;5021802;28;20501;-53
2021/11/05 09:15:30;;;;;;;4.85;2.15;;;;;;;6.63;82.45;97896.28;5023052;28;20042;-55
2021/11/05 09:17:59;;;;;;;7.68;3.28;;;;;;;6.60;81.67;97896.69;5015725;28;20050;-54
2021/11/05 09:20:26;;;;;;;4.38;2.03;;;;;;;6.76;80.72;97899.94;5006066;28;20707;-56
2021/11/05 09:22:53;;;;;;;7.93;3.33;;;;;;;6.48;80.83;97909.16;5006084;28;20050;-56
2021/11/05 09:25:19;;;;;;;3.78;2.15;;;;;;;6.63;80.34;97907.03;5006131;28;20125;-56
2021/11/05 09:27:47;;;;;;;66.85;30.17;;;;;;;6.75;80.46;97906.38;5018956;28;20057;-54
2021/11/05 09:30:15;;;;;;;47.22;22.73;;;;;;;6.97;81.21;97914.16;5023394;28;20049;-56
2021/11/05 09:32:42;;;;;;;4.25;2.08;;;;;;;7.22;79.95;97921.47;5025044;28;20045;-55
2021/11/05 09:35:14;;;;;;;3.95;2.03;;;;;;;7.31;78.94;97925.56;5025729;28;20052;-52
2021/11/05 09:37:41;;;;;;;3.85;1.77;;;;;;;7.30;77.72;97926.59;5025678;28;20385;-55
2021/11/05 09:40:12;;;;;;;13.18;6.55;;;;;;;7.31;79.26;97930.94;5024747;28;20091;-56
2021/11/05 09:42:41;;;;;;;5.22;1.90;;;;;;;7.11;78.59;97934.56;5015435;28;20052;-56
2021/11/05 09:45:09;;;;;;;3.20;1.80;;;;;;;6.93;79.57;97935.28;5021363;28;20053;-49
2021/11/05 09:47:38;;;;;;;11.50;5.57;;;;;;;6.96;80.54;97939.44;5026143;28;20037;-54
2021/11/05 09:50:06;;;;;;;10.20;5.90;;;;;;;6.75;80.42;97952.13;5025345;28;20037;-52
2021/11/05 09:52:32;;;;;;;8.55;5.13;;;;;;;6.76;81.56;97960.00;5024209;28;20248;-55
2021/11/05 09:55:00;;;;;;;5.65;2.80;;;;;;;6.97;80.73;97952.66;5025510;28;20381;-56
2021/11/05 09:57:27;;;;;;;6.70;3.90;;;;;;;7.06;80.79;97958.63;5025472;28;20053;-56
2021/11/05 09:59:55;;;;;;;6.05;3.25;;;;;;;6.96;79.49;97960.97;5026066;28;20045;-56
2021/11/05 10:02:24;;;;;;;60.97;41.25;;;;;;;6.92;80.33;97965.13;5025259;28;20740;-53
2021/11/05 10:04:52;;;;;;;6.25;3.00;;;;;;;6.96;79.60;97969.84;5025501;28;20052;-54
2021/11/05 10:07:18;;;;;;;7.90;3.42;;;;;;;6.94;80.67;97973.78;5018134;28;20227;-54
2021/11/05 10:09:51;;;;;;;4.45;2.75;;;;;;;7.02;78.07;97970.88;5005534;28;20096;-53
2021/11/05 10:12:22;;;;;;;5.90;3.53;;;;;;;7.23;77.45;97976.97;5005630;28;20149;-53
2021/11/05 10:15:05;;;;;;;5.43;3.58;;;;;;;7.25;78.79;97977.59;5006170;28;20046;-53
2021/11/05 10:17:33;;;;;;;6.50;2.63;;;;;;;7.41;77.13;97985.16;5010354;28;20439;-55
2021/11/05 10:20:09;;;;;;;5.68;3.13;;;;;;;7.36;77.50;97984.16;5026041;28;20420;-54
2021/11/05 10:22:49;;;;;;;5.40;3.00;;;;;;;7.60;76.84;97985.28;5022931;28;20620;-51
2021/11/05 10:25:21;;;;;;;7.28;4.68;;;;;;;7.77;76.96;97987.41;5010675;28;20042;-54
2021/11/05 10:28:14;;;;;;;5.85;3.22;;;;;;;7.81;76.91;97991.34;5024113;28;20057;-55
2021/11/05 10:30:43;;;;;;;5.60;2.97;;;;;;;7.86;74.39;97988.00;5027175;28;20115;-56
2021/11/05 10:33:13;;;;;;;5.03;2.72;;;;;;;7.66;74.62;97994.34;5027798;28;20060;-55
2021/11/05 10:35:43;;;;;;;5.40;3.53;;;;;;;7.69;75.33;97988.53;5026844;28;20041;-53
2021/11/05 10:38:27;;;;;;;5.90;2.90;;;;;;;7.64;73.77;97989.19;5027117;28;20092;-52
2021/11/05 10:40:59;;;;;;;5.38;2.95;;;;;;;7.48;73.60;97992.41;5027081;28;20044;-51
2021/11/05 10:43:35;;;;;;;6.85;3.58;;;;;;;7.59;75.43;97996.28;5022562;28;20042;-54
2021/11/05 10:46:04;;;;;;;5.75;3.38;;;;;;;7.53;74.95;98004.16;5020446;28;20053;-56
2021/11/05 10:48:35;;;;;;;5.65;3.00;;;;;;;7.59;75.34;97999.78;5017893;28;20045;-55
2021/11/05 10:51:04;;;;;;;;;;;;;;;7.22;74.86;98004.97;5022859;28;20053;-54
2021/11/05 10:53:32;;;;;;;6.35;3.60;;;;;;;7.49;75.86;98007.53;5024412;28;19932;-52
2021/11/05 10:56:04;;;;;;;5.28;3.25;;;;;;;7.64;76.28;98008.06;5022762;28;20648;-54
2021/11/05 10:58:35;;;;;;;5.50;3.42;;;;;;;7.54;76.70;98008.53;5021937;28;20048;-57
2021/11/05 11:01:08;;;;;;;7.45;3.92;;;;;;;7.45;77.35;98003.59;5017509;28;20049;-55
2021/11/05 11:03:38;;;;;;;5.53;3.28;;;;;;;7.85;76.26;98013.31;5026248;28;20045;-50
2021/11/05 11:06:11;;;;;;;6.20;3.33;;;;;;;7.72;75.49;98004.25;5026337;28;20068;-55
2021/11/05 11:08:43;;;;;;;6.10;3.63;;;;;;;7.98;76.19;98004.28;5026193;28;20041;-51
2021/11/05 11:11:26;;;;;;;6.30;4.00;;;;;;;8.36;73.69;98008.72;5025939;28;20053;-56
2021/11/05 11:14:02;;;;;;;5.40;3.33;;;;;;;8.61;75.31;98007.06;5025960;28;20041;-55
2021/11/05 11:16:34;;;;;;;5.30;3.20;;;;;;;8.63;72.46;98013.09;5026289;28;20512;-53
2021/11/05 11:19:21;;;;;;;4.78;3.30;;;;;;;8.63;71.84;98011.22;5026232;28;20045;-51
2021/11/05 11:21:48;;;;;;;5.25;2.92;;;;;;;8.14;70.59;98013.72;5025244;28;20629;-53
2021/11/05 11:24:18;;;;;;;5.85;3.30;;;;;;;8.63;69.82;98013.09;5026002;28;20508;-53
2021/11/05 11:26:48;;;;;;;4.93;3.47;;;;;;;8.98;70.24;98017.88;5025834;28;20053;-54
2021/11/05 11:29:16;;;;;;;4.28;2.50;;;;;;;9.01;67.73;98014.75;5025679;28;20096;-55
2021/11/05 11:31:44;;;;;;;4.53;2.70;;;;;;;9.22;67.51;98018.03;5025962;28;20049;-53
2021/11/05 11:34:14;;;;;;;5.45;2.83;;;;;;;9.01;69.80;98016.63;5026265;28;20513;-52
2021/11/05 11:36:43;;;;;;;4.53;2.72;;;;;;;9.16;67.85;98025.16;5025214;28;20049;-51
2021/11/05 11:39:13;;;;;;;6.00;3.20;;;;;;;9.14;67.97;98021.03;5025972;28;20104;-53
2021/11/05 11:41:41;;;;;;;5.20;3.05;;;;;;;9.30;68.24;98023.13;5025050;28;20056;-54
2021/11/05 11:44:09;;;;;;;36.17;18.20;;;;;;;8.60;69.47;98027.84;5025428;28;20551;-54